createdAt,value
2017-12-13T00:00:35.394Z,2.16
2017-12-13T00:01:44.216Z,2.07
2017-12-13T00:02:53.040Z,2.09
2017-12-13T00:04:01.865Z,2.07
2017-12-13T00:05:10.964Z,2.1
2017-12-13T00:06:20.057Z,2.17
2017-12-13T00:07:28.976Z,2.05
2017-12-13T00:08:37.802Z,2.1
2017-12-13T00:09:46.625Z,2.1
2017-12-13T00:10:55.448Z,2.12
2017-12-13T00:12:04.273Z,2.09
2017-12-13T00:13:13.149Z,2.05
2017-12-13T00:14:21.971Z,2.12
2017-12-13T00:15:30.804Z,2.17
2017-12-13T00:16:39.620Z,2.1
2017-12-13T00:17:48.441Z,2.12
2017-12-13T00:18:57.362Z,2.14
2017-12-13T00:20:06.185Z,2.12
2017-12-13T00:21:15.008Z,2.14
2017-12-13T00:22:23.828Z,2.21
2017-12-13T00:23:32.650Z,2.18
2017-12-13T00:24:41.900Z,2.12
2017-12-13T00:25:50.727Z,2.14
2017-12-13T00:26:59.549Z,2.12
2017-12-13T00:28:08.370Z,2.1
2017-12-13T00:29:17.195Z,2.18
2017-12-13T00:30:26.019Z,2.17
2017-12-13T00:31:34.841Z,2.21
2017-12-13T00:32:43.665Z,2.34
2017-12-13T00:33:52.488Z,2.25
2017-12-13T00:35:01.312Z,2.23
2017-12-13T00:36:10.134Z,2.24
2017-12-13T00:37:18.955Z,2.25
2017-12-13T00:38:27.778Z,2.17
2017-12-13T00:39:36.600Z,2.25
2017-12-13T00:40:45.424Z,2.23
2017-12-13T00:41:54.247Z,2.25
2017-12-13T00:43:03.070Z,2.28
2017-12-13T00:44:11.894Z,2.25
2017-12-13T00:45:20.716Z,2.27
2017-12-13T00:46:29.539Z,2.27
2017-12-13T00:47:38.662Z,2.23
2017-12-13T00:48:47.484Z,2.27
2017-12-13T00:49:56.306Z,2.3
2017-12-13T00:51:05.136Z,2.24
2017-12-13T00:52:13.957Z,2.23
2017-12-13T00:53:22.880Z,2.18
2017-12-13T00:54:31.702Z,2.21
2017-12-13T00:55:40.525Z,2.21
2017-12-13T00:56:49.348Z,2.2
2017-12-13T00:57:58.171Z,2.17
2017-12-13T00:59:07.149Z,2.2
2017-12-13T01:00:15.963Z,2.14
2017-12-13T01:01:24.811Z,2.14
2017-12-13T01:02:33.907Z,2.2
2017-12-13T01:03:42.732Z,2.06
2017-12-13T01:04:51.980Z,1.88
2017-12-13T01:06:00.802Z,2
2017-12-13T01:07:09.622Z,1.99
2017-12-13T01:08:18.446Z,1.93
2017-12-13T01:09:27.271Z,1.99
2017-12-13T01:10:36.371Z,2.03
2017-12-13T01:11:45.191Z,1.93
2017-12-13T01:12:54.013Z,1.95
2017-12-13T01:14:03.111Z,1.86
2017-12-13T01:15:12.207Z,1.86
2017-12-13T01:16:21.079Z,1.87
2017-12-13T01:17:29.901Z,1.86
2017-12-13T01:18:38.723Z,1.79
2017-12-13T01:19:47.820Z,1.83
2017-12-13T01:20:56.692Z,1.87
2017-12-13T01:22:05.814Z,1.76
2017-12-13T01:23:14.638Z,1.72
2017-12-13T01:24:23.462Z,1.83
2017-12-13T01:25:32.281Z,1.73
2017-12-13T01:26:41.102Z,1.7
2017-12-13T01:27:50.130Z,1.77
2017-12-13T01:28:58.947Z,1.73
2017-12-13T01:30:07.768Z,1.77
2017-12-13T01:31:16.590Z,1.8
2017-12-13T01:32:25.686Z,1.8
2017-12-13T01:33:34.609Z,1.69
2017-12-13T01:34:43.430Z,1.72
2017-12-13T01:35:52.251Z,1.72
2017-12-13T01:37:01.073Z,1.66
2017-12-13T01:38:09.894Z,1.79
2017-12-13T01:39:18.767Z,1.73
2017-12-13T01:40:27.592Z,1.66
2017-12-13T01:41:36.693Z,1.62
2017-12-13T01:42:45.515Z,1.63
2017-12-13T01:43:54.340Z,1.59
2017-12-13T01:45:03.313Z,1.62
2017-12-13T01:46:12.136Z,1.5
2017-12-13T01:47:20.959Z,1.48
2017-12-13T01:48:29.782Z,1.58
2017-12-13T01:49:38.604Z,1.6
2017-12-13T01:50:47.430Z,1.59
2017-12-13T01:51:56.252Z,1.55
2017-12-13T01:53:05.343Z,1.5
2017-12-13T01:54:14.164Z,1.5
2017-12-13T01:55:22.986Z,1.42
2017-12-13T01:56:32.190Z,1.5
2017-12-13T01:57:41.315Z,1.47
2017-12-13T01:58:50.135Z,1.55
2017-12-13T01:59:58.960Z,1.5
2017-12-13T02:01:07.783Z,1.45
2017-12-13T02:02:16.655Z,1.5
2017-12-13T02:03:25.479Z,1.47
2017-12-13T02:04:34.302Z,1.45
2017-12-13T02:05:43.126Z,1.55
2017-12-13T02:06:51.949Z,1.52
2017-12-13T02:08:00.924Z,1.47
2017-12-13T02:09:09.742Z,1.42
2017-12-13T02:10:18.568Z,1.41
2017-12-13T02:11:27.389Z,1.3
2017-12-13T02:12:36.218Z,1.32
2017-12-13T02:13:45.189Z,1.37
2017-12-13T02:14:54.294Z,1.41
2017-12-13T02:16:03.120Z,1.4
2017-12-13T02:17:11.950Z,1.37
2017-12-13T02:18:21.050Z,1.42
2017-12-13T02:19:30.070Z,1.34
2017-12-13T02:20:38.891Z,1.45
2017-12-13T02:21:47.715Z,1.44
2017-12-13T02:22:56.538Z,1.41
2017-12-13T02:24:05.359Z,1.41
2017-12-13T02:25:14.231Z,1.41
2017-12-13T02:26:23.053Z,1.41
2017-12-13T02:27:31.872Z,1.27
2017-12-13T02:28:40.693Z,1.36
2017-12-13T02:29:49.516Z,1.26
2017-12-13T02:30:58.539Z,1.27
2017-12-13T02:32:07.361Z,1.51
2017-12-13T02:33:16.186Z,1.4
2017-12-13T02:34:25.009Z,1.27
2017-12-13T02:35:33.829Z,1.26
2017-12-13T02:36:42.899Z,1.26
2017-12-13T02:37:51.720Z,1.26
2017-12-13T02:39:00.542Z,1.16
2017-12-13T02:40:09.367Z,1.22
2017-12-13T02:41:18.188Z,1.29
2017-12-13T02:42:27.312Z,1.24
2017-12-13T02:43:36.695Z,1.22
2017-12-13T02:44:45.517Z,1.27
2017-12-13T02:45:54.342Z,1.27
2017-12-13T02:47:03.166Z,1.26
2017-12-13T02:48:12.093Z,1.26
2017-12-13T02:49:20.917Z,1.23
2017-12-13T02:50:29.740Z,1.24
2017-12-13T02:51:38.561Z,1.24
2017-12-13T02:52:47.663Z,1.26
2017-12-13T02:53:56.637Z,1.24
2017-12-13T02:55:05.738Z,1.2
2017-12-13T02:56:14.560Z,1.18
2017-12-13T02:57:23.654Z,1.24
2017-12-13T02:58:32.477Z,1.24
2017-12-13T02:59:41.399Z,1.18
2017-12-13T03:00:50.218Z,1.26
2017-12-13T03:01:59.040Z,1.3
2017-12-13T03:03:07.864Z,1.26
2017-12-13T03:04:16.969Z,1.26
2017-12-13T03:05:25.887Z,1.27
2017-12-13T03:06:34.710Z,1.23
2017-12-13T03:07:43.532Z,1.23
2017-12-13T03:08:52.355Z,1.22
2017-12-13T03:10:01.275Z,1.27
2017-12-13T03:11:10.249Z,1.23
2017-12-13T03:12:19.072Z,1.27
2017-12-13T03:13:27.894Z,1.32
2017-12-13T03:14:36.721Z,1.27
2017-12-13T03:15:45.542Z,1.26
2017-12-13T03:16:54.641Z,1.37
2017-12-13T03:18:03.464Z,1.27
2017-12-13T03:19:12.287Z,1.29
2017-12-13T03:20:21.108Z,1.34
2017-12-13T03:21:29.931Z,1.36
2017-12-13T03:22:38.955Z,1.33
2017-12-13T03:23:47.775Z,1.34
2017-12-13T03:24:56.598Z,1.34
2017-12-13T03:26:05.419Z,1.37
2017-12-13T03:27:14.240Z,1.27
2017-12-13T03:28:23.065Z,1.27
2017-12-13T03:29:31.888Z,1.3
2017-12-13T03:30:40.741Z,1.32
2017-12-13T03:31:49.848Z,1.29
2017-12-13T03:32:58.673Z,1.34
2017-12-13T03:34:07.550Z,1.3
2017-12-13T03:35:16.367Z,1.32
2017-12-13T03:36:25.188Z,1.42
2017-12-13T03:37:34.288Z,1.34
2017-12-13T03:38:43.107Z,1.33
2017-12-13T03:39:51.981Z,1.27
2017-12-13T03:41:00.804Z,1.29
2017-12-13T03:42:09.626Z,1.34
2017-12-13T03:43:18.449Z,1.29
2017-12-13T03:44:27.271Z,1.32
2017-12-13T03:45:36.576Z,1.34
2017-12-13T03:46:45.392Z,1.33
2017-12-13T03:47:54.242Z,1.27
2017-12-13T03:49:03.373Z,1.32
2017-12-13T03:50:12.195Z,1.37
2017-12-13T03:51:21.418Z,1.37
2017-12-13T03:52:30.239Z,1.36
2017-12-13T03:53:39.062Z,1.4
2017-12-13T03:54:47.885Z,1.41
2017-12-13T03:55:56.705Z,1.42
2017-12-13T03:57:05.679Z,1.36
2017-12-13T03:58:14.502Z,1.44
2017-12-13T03:59:23.322Z,1.37
2017-12-13T04:00:32.144Z,1.4
2017-12-13T04:01:40.967Z,1.33
2017-12-13T04:02:49.940Z,1.41
2017-12-13T04:03:58.756Z,1.4
2017-12-13T04:05:07.580Z,1.42
2017-12-13T04:06:16.404Z,1.41
2017-12-13T04:07:25.224Z,1.44
2017-12-13T04:08:34.197Z,1.37
2017-12-13T04:09:43.025Z,1.4
2017-12-13T04:10:52.119Z,1.36
2017-12-13T04:12:00.943Z,1.45
2017-12-13T04:13:09.763Z,1.58
2017-12-13T04:14:18.785Z,1.44
2017-12-13T04:15:27.604Z,1.47
2017-12-13T04:16:36.427Z,1.51
2017-12-13T04:17:45.248Z,1.44
2017-12-13T04:18:54.070Z,1.51
2017-12-13T04:20:02.991Z,1.52
2017-12-13T04:21:11.813Z,1.58
2017-12-13T04:22:20.634Z,1.58
2017-12-13T04:23:29.455Z,1.59
2017-12-13T04:24:38.279Z,1.58
2017-12-13T04:25:47.254Z,1.6
2017-12-13T04:26:56.077Z,1.6
2017-12-13T04:28:04.902Z,1.68
2017-12-13T04:29:13.724Z,1.6
2017-12-13T04:30:22.825Z,1.63
2017-12-13T04:31:31.752Z,1.66
2017-12-13T04:32:40.574Z,1.63
2017-12-13T04:33:49.396Z,1.65
2017-12-13T04:34:58.219Z,1.65
2017-12-13T04:36:07.044Z,1.69
2017-12-13T04:37:15.918Z,1.79
2017-12-13T04:38:24.738Z,1.7
2017-12-13T04:39:33.560Z,1.77
2017-12-13T04:40:42.381Z,1.68
2017-12-13T04:41:51.206Z,1.69
2017-12-13T04:43:00.328Z,1.76
2017-12-13T04:44:09.151Z,1.77
2017-12-13T04:45:17.971Z,1.83
2017-12-13T04:46:26.796Z,1.73
2017-12-13T04:47:35.618Z,1.73
2017-12-13T04:48:44.739Z,1.76
2017-12-13T04:49:53.562Z,1.8
2017-12-13T04:51:02.388Z,1.7
2017-12-13T04:52:11.208Z,1.77
2017-12-13T04:53:20.029Z,1.65
2017-12-13T04:54:28.950Z,1.84
2017-12-13T04:55:37.774Z,1.79
2017-12-13T04:56:46.598Z,1.79
2017-12-13T04:57:55.422Z,1.73
2017-12-13T04:59:04.242Z,1.76
2017-12-13T05:00:13.463Z,1.7
2017-12-13T05:01:22.288Z,1.76
2017-12-13T05:02:31.112Z,1.66
2017-12-13T05:03:40.209Z,1.76
2017-12-13T05:04:49.033Z,1.73
2017-12-13T05:05:58.310Z,1.91
2017-12-13T05:07:07.131Z,1.83
2017-12-13T05:08:15.958Z,1.77
2017-12-13T05:09:24.779Z,1.8
2017-12-13T05:10:33.883Z,1.73
2017-12-13T05:11:43.003Z,1.8
2017-12-13T05:12:51.828Z,1.8
2017-12-13T05:14:00.652Z,1.72
2017-12-13T05:15:09.472Z,1.81
2017-12-13T05:16:18.295Z,1.79
2017-12-13T05:17:27.267Z,1.76
2017-12-13T05:18:36.090Z,1.72
2017-12-13T05:19:44.913Z,1.7
2017-12-13T05:20:53.736Z,1.77
2017-12-13T05:22:02.560Z,1.76
2017-12-13T05:23:11.385Z,1.81
2017-12-13T05:24:20.206Z,1.81
2017-12-13T05:25:29.029Z,1.79
2017-12-13T05:26:37.854Z,1.76
2017-12-13T05:27:46.675Z,1.72
2017-12-13T05:28:55.645Z,1.76
2017-12-13T05:30:04.477Z,1.73
2017-12-13T05:31:13.574Z,1.86
2017-12-13T05:32:22.398Z,1.86
2017-12-13T05:33:31.227Z,1.87
2017-12-13T05:34:40.048Z,1.81
2017-12-13T05:35:48.872Z,1.86
2017-12-13T05:36:57.695Z,1.86
2017-12-13T05:38:06.517Z,1.83
2017-12-13T05:39:15.391Z,1.8
2017-12-13T05:40:24.215Z,1.95
2017-12-13T05:41:33.037Z,1.91
2017-12-13T05:42:41.859Z,1.88
2017-12-13T05:43:50.749Z,1.83
2017-12-13T05:44:59.644Z,1.81
2017-12-13T05:46:08.516Z,1.79
2017-12-13T05:47:17.383Z,1.84
2017-12-13T05:48:26.204Z,1.99
2017-12-13T05:49:35.030Z,1.98
2017-12-13T05:50:43.852Z,1.95
2017-12-13T05:51:52.675Z,1.88
2017-12-13T05:53:01.496Z,1.83
2017-12-13T05:54:10.316Z,1.9
2017-12-13T05:55:19.138Z,2
2017-12-13T05:56:27.962Z,1.99
2017-12-13T05:57:36.784Z,1.99
2017-12-13T05:58:45.611Z,1.91
2017-12-13T05:59:54.533Z,2.07
2017-12-13T06:01:03.625Z,1.93
2017-12-13T06:02:12.457Z,2.03
2017-12-13T06:03:21.271Z,1.93
2017-12-13T06:04:30.094Z,2
2017-12-13T06:05:39.421Z,2
2017-12-13T06:06:48.525Z,1.93
2017-12-13T06:07:57.350Z,2.05
2017-12-13T06:09:06.170Z,1.93
2017-12-13T06:10:14.998Z,1.9
2017-12-13T06:11:24.217Z,2.03
2017-12-13T06:12:33.051Z,2.03
2017-12-13T06:13:41.884Z,1.95
2017-12-13T06:14:50.716Z,2.09
2017-12-13T06:15:59.542Z,2.14
2017-12-13T06:17:08.465Z,2.09
2017-12-13T06:18:17.298Z,2.1
2017-12-13T06:19:26.389Z,2.1
2017-12-13T06:20:35.213Z,2.03
2017-12-13T06:21:44.035Z,1.99
2017-12-13T06:22:52.957Z,2.03
2017-12-13T06:24:01.782Z,2.06
2017-12-13T06:25:10.606Z,2.05
2017-12-13T06:26:19.706Z,1.95
2017-12-13T06:27:28.809Z,2.03
2017-12-13T06:28:37.956Z,2.02
2017-12-13T06:29:46.782Z,2.06
2017-12-13T06:30:55.666Z,2.03
2017-12-13T06:32:04.624Z,1.93
2017-12-13T06:33:13.583Z,2.06
2017-12-13T06:34:22.794Z,2.07
2017-12-13T06:35:31.737Z,1.93
2017-12-13T06:36:40.696Z,1.91
2017-12-13T06:37:49.573Z,2.03
2017-12-13T06:38:58.399Z,1.99
2017-12-13T06:40:07.374Z,1.98
2017-12-13T06:41:16.198Z,1.98
2017-12-13T06:42:25.298Z,2.02
2017-12-13T06:43:34.136Z,1.93
2017-12-13T06:44:42.947Z,1.95
2017-12-13T06:45:51.770Z,2.02
2017-12-13T06:47:00.594Z,2.1
2017-12-13T06:48:09.416Z,1.98
2017-12-13T06:49:18.518Z,1.93
2017-12-13T06:50:27.345Z,1.99
2017-12-13T06:51:36.169Z,2.05
2017-12-13T06:52:44.993Z,1.93
2017-12-13T06:53:53.817Z,1.93
2017-12-13T06:55:02.641Z,2.06
2017-12-13T06:56:11.462Z,1.83
2017-12-13T06:57:20.486Z,1.91
2017-12-13T06:58:29.308Z,1.84
2017-12-13T06:59:38.416Z,1.93
2017-12-13T07:00:47.240Z,2.02
2017-12-13T07:01:56.059Z,1.93
2017-12-13T07:03:05.232Z,1.91
2017-12-13T07:04:14.058Z,1.79
2017-12-13T07:05:22.890Z,1.84
2017-12-13T07:06:31.716Z,1.84
2017-12-13T07:07:40.816Z,1.9
2017-12-13T07:08:49.689Z,1.87
2017-12-13T07:09:58.789Z,2.06
2017-12-13T07:11:07.612Z,2.03
2017-12-13T07:12:16.539Z,1.95
2017-12-13T07:13:25.915Z,2.03
2017-12-13T07:14:35.285Z,1.9
2017-12-13T07:15:44.107Z,2.02
2017-12-13T07:16:52.932Z,2.03
2017-12-13T07:18:01.755Z,2.06
2017-12-13T07:19:10.852Z,1.93
2017-12-13T07:20:20.042Z,2.05
2017-12-13T07:21:28.861Z,1.95
2017-12-13T07:22:37.685Z,2.03
2017-12-13T07:23:46.510Z,2.05
2017-12-13T07:24:55.333Z,2.16
2017-12-13T07:26:04.454Z,2.1
2017-12-13T07:27:13.277Z,2.12
2017-12-13T07:28:22.101Z,2.17
2017-12-13T07:29:30.924Z,2.12
2017-12-13T07:30:39.766Z,2.12
2017-12-13T07:31:48.741Z,2.17
2017-12-13T07:32:57.567Z,2.18
2017-12-13T07:34:06.392Z,2.1
2017-12-13T07:35:15.215Z,2.18
2017-12-13T07:36:24.040Z,2.21
2017-12-13T07:37:33.162Z,2.28
2017-12-13T07:38:41.988Z,2.28
2017-12-13T07:39:50.812Z,2.24
2017-12-13T07:40:59.636Z,2.27
2017-12-13T07:42:08.459Z,2.31
2017-12-13T07:43:17.384Z,2.31
2017-12-13T07:44:26.207Z,2.36
2017-12-13T07:45:35.027Z,2.31
2017-12-13T07:46:43.851Z,2.3
2017-12-13T07:47:52.677Z,2.36
2017-12-13T07:49:01.753Z,2.43
2017-12-13T07:50:10.578Z,2.43
2017-12-13T07:51:19.403Z,2.41
2017-12-13T07:52:28.227Z,2.39
2017-12-13T07:53:37.055Z,2.39
2017-12-13T07:54:45.880Z,2.42
2017-12-13T07:55:54.984Z,2.42
2017-12-13T07:57:04.083Z,2.45
2017-12-13T07:58:12.906Z,2.48
2017-12-13T07:59:21.730Z,2.45
2017-12-13T08:00:30.655Z,2.46
2017-12-13T08:01:39.479Z,2.53
2017-12-13T08:02:48.303Z,2.57
2017-12-13T08:03:57.126Z,2.52
2017-12-13T08:05:05.953Z,2.48
2017-12-13T08:06:14.876Z,2.45
2017-12-13T08:07:23.700Z,2.49
2017-12-13T08:08:32.627Z,2.54
2017-12-13T08:09:41.721Z,2.57
2017-12-13T08:10:50.544Z,2.63
2017-12-13T08:11:59.418Z,2.61
2017-12-13T08:13:08.243Z,2.69
2017-12-13T08:14:17.067Z,2.74
2017-12-13T08:15:25.940Z,2.77
2017-12-13T08:16:34.766Z,2.69
2017-12-13T08:17:43.640Z,2.77
2017-12-13T08:18:52.463Z,2.74
2017-12-13T08:20:01.560Z,2.75
2017-12-13T08:21:10.388Z,2.75
2017-12-13T08:22:19.218Z,2.74
2017-12-13T08:23:28.087Z,2.87
2017-12-13T08:24:37.187Z,2.81
2017-12-13T08:25:46.014Z,2.78
2017-12-13T08:26:54.938Z,2.77
2017-12-13T08:28:04.039Z,3.1
2017-12-13T08:29:12.915Z,2.99
2017-12-13T08:30:21.741Z,2.96
2017-12-13T08:31:30.570Z,2.95
2017-12-13T08:32:39.389Z,2.97
2017-12-13T08:33:48.214Z,2.92
2017-12-13T08:34:57.339Z,2.96
2017-12-13T08:36:06.163Z,2.93
2017-12-13T08:37:14.991Z,2.93
2017-12-13T08:38:23.815Z,2.96
2017-12-13T08:39:32.641Z,3.05
2017-12-13T08:40:41.465Z,3
2017-12-13T08:41:50.566Z,2.96
2017-12-13T08:42:59.392Z,2.97
2017-12-13T08:44:08.223Z,2.97
2017-12-13T08:45:17.603Z,3.08
2017-12-13T08:46:26.476Z,3.1
2017-12-13T08:47:35.311Z,3.08
2017-12-13T08:48:44.408Z,3.05
2017-12-13T08:49:53.335Z,3.15
2017-12-13T08:51:02.158Z,3.08
2017-12-13T08:52:11.328Z,3.17
2017-12-13T08:53:20.155Z,3.15
2017-12-13T08:54:29.250Z,3.14
2017-12-13T08:55:38.077Z,3.23
2017-12-13T08:56:46.954Z,3.18
2017-12-13T08:57:55.830Z,3.33
2017-12-13T08:59:04.655Z,3.23
2017-12-13T09:00:13.481Z,3.24
2017-12-13T09:01:22.303Z,3.17
2017-12-13T09:02:31.126Z,3.18
2017-12-13T09:03:39.950Z,3.21
2017-12-13T09:04:48.775Z,3.23
2017-12-13T09:05:57.700Z,3.26
2017-12-13T09:07:06.520Z,3.35
2017-12-13T09:08:15.347Z,3.31
2017-12-13T09:09:24.272Z,3.24
2017-12-13T09:10:33.098Z,3.29
2017-12-13T09:11:42.200Z,3.36
2017-12-13T09:12:51.023Z,3.26
2017-12-13T09:13:59.849Z,3.4
2017-12-13T09:15:08.976Z,3.31
2017-12-13T09:16:17.799Z,3.47
2017-12-13T09:17:26.624Z,3.5
2017-12-13T09:18:35.449Z,3.54
2017-12-13T09:19:44.278Z,3.48
2017-12-13T09:20:53.401Z,3.52
2017-12-13T09:22:02.225Z,3.58
2017-12-13T09:23:11.051Z,3.51
2017-12-13T09:24:19.876Z,3.55
2017-12-13T09:25:28.709Z,3.61
2017-12-13T09:26:37.789Z,3.54
2017-12-13T09:27:46.610Z,3.55
2017-12-13T09:28:55.436Z,3.55
2017-12-13T09:30:04.262Z,3.55
2017-12-13T09:31:13.089Z,3.68
2017-12-13T09:32:21.916Z,3.68
2017-12-13T09:33:30.740Z,3.65
2017-12-13T09:34:39.616Z,3.73
2017-12-13T09:35:48.441Z,3.7
2017-12-13T09:36:57.265Z,3.68
2017-12-13T09:38:06.141Z,3.7
2017-12-13T09:39:15.018Z,3.66
2017-12-13T09:40:24.116Z,3.68
2017-12-13T09:41:32.941Z,3.78
2017-12-13T09:42:41.765Z,3.58
2017-12-13T09:43:50.691Z,3.7
2017-12-13T09:44:59.516Z,3.62
2017-12-13T09:46:08.344Z,3.75
2017-12-13T09:47:17.168Z,3.69
2017-12-13T09:48:26.003Z,3.73
2017-12-13T09:49:34.829Z,3.69
2017-12-13T09:50:43.663Z,3.68
2017-12-13T09:51:52.760Z,3.73
2017-12-13T09:53:01.585Z,3.75
2017-12-13T09:54:10.410Z,3.66
2017-12-13T09:55:19.672Z,3.73
2017-12-13T09:56:28.783Z,3.7
2017-12-13T09:57:37.608Z,3.66
2017-12-13T09:58:46.433Z,3.7
2017-12-13T09:59:55.257Z,3.79
2017-12-13T10:01:04.332Z,3.73
2017-12-13T10:02:13.158Z,3.68
2017-12-13T10:03:21.985Z,3.69
2017-12-13T10:04:30.808Z,3.66
2017-12-13T10:05:39.635Z,3.7
2017-12-13T10:06:48.609Z,3.69
2017-12-13T10:07:57.437Z,3.72
2017-12-13T10:09:06.260Z,3.62
2017-12-13T10:10:15.091Z,3.65
2017-12-13T10:11:23.913Z,3.6
2017-12-13T10:12:32.884Z,3.75
2017-12-13T10:13:41.715Z,3.58
2017-12-13T10:14:50.532Z,3.58
2017-12-13T10:15:59.459Z,3.61
2017-12-13T10:17:08.282Z,3.51
2017-12-13T10:18:17.357Z,3.57
2017-12-13T10:19:26.186Z,3.69
2017-12-13T10:20:35.007Z,3.5
2017-12-13T10:21:43.832Z,3.48
2017-12-13T10:22:52.659Z,3.45
2017-12-13T10:24:02.231Z,3.39
2017-12-13T10:25:11.055Z,3.43
2017-12-13T10:26:19.882Z,3.39
2017-12-13T10:27:28.709Z,3.39
2017-12-13T10:28:37.534Z,3.39
2017-12-13T10:29:46.410Z,3.51
2017-12-13T10:30:55.235Z,3.4
2017-12-13T10:32:04.060Z,3.43
2017-12-13T10:33:12.885Z,3.39
2017-12-13T10:34:21.709Z,3.42
2017-12-13T10:35:30.955Z,3.26
2017-12-13T10:36:39.778Z,3.24
2017-12-13T10:37:48.878Z,3.28
2017-12-13T10:38:57.704Z,3.23
2017-12-13T10:40:06.529Z,3.14
2017-12-13T10:41:15.555Z,3.13
2017-12-13T10:42:24.383Z,3.11
2017-12-13T10:43:33.209Z,3.14
2017-12-13T10:44:42.035Z,3.14
2017-12-13T10:45:50.860Z,3.2
2017-12-13T10:47:00.011Z,3.36
2017-12-13T10:48:08.842Z,3.11
2017-12-13T10:49:17.668Z,3.11
2017-12-13T10:50:26.494Z,3.15
2017-12-13T10:51:35.319Z,3.15
2017-12-13T10:52:44.242Z,3.15
2017-12-13T10:53:53.070Z,3.2
2017-12-13T10:55:02.523Z,3.23
2017-12-13T10:56:11.637Z,3.2
2017-12-13T10:57:20.748Z,3.11
2017-12-13T10:58:29.774Z,3.24
2017-12-13T10:59:38.876Z,3.21
2017-12-13T11:00:47.975Z,3.18
2017-12-13T11:01:56.800Z,3.24
2017-12-13T11:03:05.903Z,3.2
2017-12-13T11:04:14.730Z,3.26
2017-12-13T11:05:23.560Z,3.29
2017-12-13T11:06:32.657Z,3.24
2017-12-13T11:07:41.486Z,3.11
2017-12-13T11:08:50.614Z,3.11
2017-12-13T11:09:59.437Z,3.29
2017-12-13T11:11:08.263Z,3.17
2017-12-13T11:12:17.093Z,3.21
2017-12-13T11:13:26.192Z,3.11
2017-12-13T11:14:35.018Z,3.11
2017-12-13T11:15:43.843Z,3.15
2017-12-13T11:16:52.666Z,3.23
2017-12-13T11:18:01.492Z,3.15
2017-12-13T11:19:10.316Z,3.14
2017-12-13T11:20:19.192Z,3.2
2017-12-13T11:21:28.017Z,3.23
2017-12-13T11:22:36.842Z,3.26
2017-12-13T11:23:45.716Z,3.23
2017-12-13T11:24:54.545Z,3.18
2017-12-13T11:26:03.627Z,3.18
2017-12-13T11:27:12.455Z,3.15
2017-12-13T11:28:21.280Z,3.21
2017-12-13T11:29:30.105Z,3.18
2017-12-13T11:30:38.932Z,3.24
2017-12-13T11:31:47.758Z,3.14
2017-12-13T11:32:56.583Z,3.17
2017-12-13T11:34:05.685Z,3.23
2017-12-13T11:35:14.511Z,3.21
2017-12-13T11:36:23.337Z,3.11
2017-12-13T11:37:32.159Z,3.1
2017-12-13T11:38:41.295Z,3.1
2017-12-13T11:39:50.086Z,3.11
2017-12-13T11:40:58.971Z,3.08
2017-12-13T11:42:08.073Z,3.05
2017-12-13T11:43:17.149Z,3.13
2017-12-13T11:44:25.975Z,3.08
2017-12-13T11:45:34.798Z,3.11
2017-12-13T11:46:43.622Z,3.13
2017-12-13T11:47:52.445Z,3.1
2017-12-13T11:49:01.372Z,3.08
2017-12-13T11:50:10.198Z,3.1
2017-12-13T11:51:19.021Z,3.13
2017-12-13T11:52:27.845Z,3.14
2017-12-13T11:53:36.940Z,3.1
2017-12-13T11:54:45.910Z,3.1
2017-12-13T11:55:54.733Z,3.03
2017-12-13T11:57:03.558Z,3.08
2017-12-13T11:58:12.382Z,3.13
2017-12-13T11:59:21.206Z,3.11
2017-12-13T12:00:30.181Z,3.2
2017-12-13T12:01:39.279Z,3.15
2017-12-13T12:02:48.108Z,3.08
2017-12-13T12:03:56.930Z,3.18
2017-12-13T12:05:05.754Z,3.14
2017-12-13T12:06:14.578Z,3.1
2017-12-13T12:07:23.404Z,3.13
2017-12-13T12:08:32.751Z,3.13
2017-12-13T12:09:41.620Z,3.24
2017-12-13T12:10:50.945Z,3.31
2017-12-13T12:12:00.073Z,3.24
2017-12-13T12:13:09.140Z,3.28
2017-12-13T12:14:18.342Z,3.14
2017-12-13T12:15:27.676Z,3.13
2017-12-13T12:16:36.521Z,3.24
2017-12-13T12:17:46.041Z,3.17
2017-12-13T12:18:55.237Z,3.18
2017-12-13T12:20:04.517Z,3.24
2017-12-13T12:21:13.403Z,3.23
2017-12-13T12:22:22.259Z,3.18
2017-12-13T12:23:31.112Z,3.28
2017-12-13T12:24:40.459Z,3.26
2017-12-13T12:25:49.791Z,3.26
2017-12-13T12:26:58.675Z,3.31
2017-12-13T12:28:07.839Z,3.24
2017-12-13T12:29:16.786Z,3.23
2017-12-13T12:30:25.683Z,3.26
2017-12-13T12:31:34.543Z,3.35
2017-12-13T12:32:43.576Z,3.26
2017-12-13T12:33:52.415Z,3.23
2017-12-13T12:35:01.492Z,3.33
2017-12-13T12:36:10.326Z,3.28
2017-12-13T12:37:19.613Z,3.18
2017-12-13T12:38:28.716Z,3.35
2017-12-13T12:39:37.573Z,3.31
2017-12-13T12:40:46.734Z,3.17
2017-12-13T12:41:55.620Z,3.26
2017-12-13T12:43:05.244Z,3.21
2017-12-13T12:44:14.065Z,3.26
2017-12-13T12:45:22.930Z,3.21
2017-12-13T12:46:31.924Z,3.18
2017-12-13T12:47:40.964Z,3.17
2017-12-13T12:48:49.790Z,3.31
2017-12-13T12:49:58.829Z,3.28
2017-12-13T12:51:08.390Z,3.33
2017-12-13T12:52:17.303Z,3.35
2017-12-13T12:53:26.371Z,3.17
2017-12-13T12:54:35.433Z,3.4
2017-12-13T12:55:44.258Z,3.33
2017-12-13T12:56:53.088Z,3.31
2017-12-13T12:58:01.962Z,3.24
2017-12-13T12:59:10.787Z,3.23
2017-12-13T13:00:19.611Z,3.24
2017-12-13T13:01:28.439Z,3.29
2017-12-13T13:02:37.259Z,3.23
2017-12-13T13:03:46.136Z,3.28
2017-12-13T13:04:55.316Z,3.23
2017-12-13T13:06:04.239Z,3.31
2017-12-13T13:07:13.066Z,3.42
2017-12-13T13:08:21.929Z,3.32
2017-12-13T13:09:31.130Z,3.23
2017-12-13T13:10:39.955Z,3.2
2017-12-13T13:11:48.817Z,3.26
2017-12-13T13:12:57.677Z,3.17
2017-12-13T13:14:06.556Z,3.14
2017-12-13T13:15:15.439Z,3.29
2017-12-13T13:16:24.262Z,3.15
2017-12-13T13:17:33.086Z,3.23
2017-12-13T13:18:41.911Z,3.14
2017-12-13T13:19:50.733Z,3.23
2017-12-13T13:20:59.608Z,3.21
2017-12-13T13:22:08.434Z,3.1
2017-12-13T13:23:17.263Z,3.2
2017-12-13T13:24:26.362Z,3.26
2017-12-13T13:25:35.464Z,3.26
2017-12-13T13:26:44.339Z,3.14
2017-12-13T13:27:53.162Z,3.21
2017-12-13T13:29:01.991Z,3.17
2017-12-13T13:30:10.814Z,3.14
2017-12-13T13:31:19.636Z,3.13
2017-12-13T13:32:28.513Z,3.13
2017-12-13T13:33:37.347Z,3.31
2017-12-13T13:34:46.185Z,3.17
2017-12-13T13:35:55.285Z,3.1
2017-12-13T13:37:04.108Z,3.11
2017-12-13T13:38:13.083Z,3.13
2017-12-13T13:39:21.908Z,3.14
2017-12-13T13:40:30.730Z,3.14
2017-12-13T13:41:39.554Z,3.17
2017-12-13T13:42:48.380Z,3.15
2017-12-13T13:43:57.457Z,3.14
2017-12-13T13:45:06.284Z,3.14
2017-12-13T13:46:15.106Z,3.24
2017-12-13T13:47:23.934Z,3.15
2017-12-13T13:48:33.035Z,3.11
2017-12-13T13:49:41.860Z,3.03
2017-12-13T13:50:50.708Z,3.06
2017-12-13T13:51:59.538Z,3.15
2017-12-13T13:53:08.360Z,3
2017-12-13T13:54:17.186Z,3.13
2017-12-13T13:55:26.161Z,3.1
2017-12-13T13:56:34.984Z,3.03
2017-12-13T13:57:43.810Z,3.05
2017-12-13T13:58:52.642Z,3.08
2017-12-13T14:00:01.463Z,3
2017-12-13T14:01:10.618Z,3
2017-12-13T14:02:19.715Z,2.96
2017-12-13T14:03:28.537Z,2.87
2017-12-13T14:04:37.361Z,2.9
2017-12-13T14:05:46.184Z,2.99
2017-12-13T14:06:55.110Z,2.87
2017-12-13T14:08:03.938Z,2.95
2017-12-13T14:09:13.331Z,2.79
2017-12-13T14:10:22.150Z,2.84
2017-12-13T14:11:30.974Z,2.92
2017-12-13T14:12:39.900Z,2.9
2017-12-13T14:13:48.722Z,2.78
2017-12-13T14:14:57.549Z,2.78
2017-12-13T14:16:06.374Z,2.82
2017-12-13T14:17:15.198Z,2.79
2017-12-13T14:18:24.273Z,2.9
2017-12-13T14:19:33.098Z,2.92
2017-12-13T14:20:41.921Z,2.95
2017-12-13T14:21:50.755Z,2.78
2017-12-13T14:22:59.589Z,3.03
2017-12-13T14:24:08.462Z,2.96
2017-12-13T14:25:17.286Z,2.93
2017-12-13T14:26:26.108Z,2.9
2017-12-13T14:27:34.936Z,2.92
2017-12-13T14:28:43.759Z,2.9
2017-12-13T14:29:52.634Z,2.77
2017-12-13T14:31:01.456Z,2.79
2017-12-13T14:32:10.556Z,2.77
2017-12-13T14:33:19.379Z,2.75
2017-12-13T14:34:28.201Z,2.77
2017-12-13T14:35:37.177Z,2.82
2017-12-13T14:36:46.002Z,2.82
2017-12-13T14:37:54.821Z,2.78
2017-12-13T14:39:03.646Z,2.74
2017-12-13T14:40:12.467Z,2.78
2017-12-13T14:41:21.341Z,2.71
2017-12-13T14:42:30.165Z,2.64
2017-12-13T14:43:38.997Z,2.75
2017-12-13T14:44:47.812Z,2.75
2017-12-13T14:45:56.637Z,2.72
2017-12-13T14:47:05.461Z,2.71
2017-12-13T14:48:14.285Z,2.74
2017-12-13T14:49:23.110Z,2.81
2017-12-13T14:50:31.933Z,2.74
2017-12-13T14:51:41.032Z,2.74
2017-12-13T14:52:49.902Z,2.72
2017-12-13T14:53:58.726Z,2.74
2017-12-13T14:55:07.828Z,2.72
2017-12-13T14:56:16.652Z,2.74
2017-12-13T14:57:25.476Z,2.74
2017-12-13T14:58:34.302Z,2.79
2017-12-13T14:59:43.126Z,2.75
2017-12-13T15:00:51.958Z,2.72
2017-12-13T15:02:01.057Z,2.72
2017-12-13T15:03:09.881Z,2.78
2017-12-13T15:04:18.853Z,2.77
2017-12-13T15:05:27.682Z,2.78
2017-12-13T15:06:36.500Z,2.63
2017-12-13T15:07:45.324Z,2.75
2017-12-13T15:08:54.148Z,2.75
2017-12-13T15:10:02.972Z,2.74
2017-12-13T15:11:11.804Z,2.81
2017-12-13T15:12:20.621Z,2.63
2017-12-13T15:13:29.445Z,2.71
2017-12-13T15:14:38.267Z,2.69
2017-12-13T15:15:47.107Z,2.69
2017-12-13T15:16:55.933Z,2.64
2017-12-13T15:18:04.752Z,2.63
2017-12-13T15:19:13.578Z,2.71
2017-12-13T15:20:22.677Z,2.66
2017-12-13T15:21:31.501Z,2.64